Sign-in with your pilot id or email, or register

ICAO: LRTR Name / Country: Timisoara / Romania
Latitude: 45.8099 Longitude: 21.3379
Total Arrivals:
Strict Standards: Non-static method AirportData::getarrflights() should not be called statically, assuming $this from incompatible context in /var/www/customers/vh-7192/web/home/phpvms/core/templates/airport_info.tpl on line 18
6
Total Departures:
Strict Standards: Non-static method AirportData::getdeptflights() should not be called statically, assuming $this from incompatible context in /var/www/customers/vh-7192/web/home/phpvms/core/templates/airport_info.tpl on line 21
6
Latest Arrival: MTA11P (LHBP-LRTR) Tibor Berces Latest Departure: MTA11P (LRTR-LHBP) Tibor Berces
Metar: LRTR 270900Z VRB02KT 9999 FEW023 14/09 Q1010 R11/29//95
More info

Charts for LRTR


NOTAM


Warning: file_get_contents(http://api.vateud.net/notams/LRTR.json): failed to open stream: Redirection limit reached, aborting in /var/www/customers/vh-7192/web/home/phpvms/core/common/NOTAMSData.class.php on line 18

Warning: Invalid argument supplied for foreach() in /var/www/customers/vh-7192/web/home/phpvms/core/common/NOTAMSData.class.php on line 22

Timisoara